Time,TemperatureF,DewpointF,PressureIn,WindDirection,WindDirectionDegrees,WindSpeedMPH,WindSpeedGustMPH,Humidity,HourlyPrecipIn,Conditions,Clouds,dailyrainin,SoftwareType,DateUTC
2013-03-09 00:06:00,55.4,42.0,30.14,SE,128,1.0,2.0,61,0.00,,,0.00,weatherlink.com 1.10,2013-03-09 06:06:00,
2013-03-09 00:21:00,55.2,43.0,30.13,SSE,158,0.0,3.0,63,0.00,,,0.00,weatherlink.com 1.10,2013-03-09 06:21:00,
2013-03-09 00:36:00,54.5,43.0,30.12,ESE,121,1.0,2.0,65,0.00,,,0.00,weatherlink.com 1.10,2013-03-09 06:36:00,
2013-03-09 00:51:00,54.2,43.0,30.11,SE,128,1.0,2.0,67,0.00,,,0.00,weatherlink.com 1.10,2013-03-09 06:51:00,
2013-03-09 01:06:00,53.9,43.0,30.11,SE,141,0.0,1.0,67,0.00,,,0.00,weatherlink.com 1.10,2013-03-09 07:06:00,
2013-03-09 01:21:00,53.1,43.0,30.10,SE,141,0.0,0.0,69,0.00,,,0.00,weatherlink.com 1.10,2013-03-09 07:21:00,
2013-03-09 01:36:00,52.1,43.0,30.10,SE,141,0.0,0.0,72,0.00,,,0.00,weatherlink.com 1.10,2013-03-09 07:36:00,
2013-03-09 01:51:00,51.2,44.0,30.10,SE,141,0.0,1.0,75,0.00,,,0.00,weatherlink.com 1.10,2013-03-09 07:51:00,
2013-03-09 02:06:00,52.0,44.0,30.09,South,170,0.0,2.0,74,0.00,,,0.00,weatherlink.com 1.10,2013-03-09 08:06:00,
2013-03-09 02:21:00,51.8,44.0,30.09,South,170,0.0,0.0,74,0.00,,,0.00,weatherlink.com 1.10,2013-03-09 08:21:00,
2013-03-09 02:36:00,51.3,44.0,30.08,South,171,0.0,1.0,76,0.00,,,0.00,weatherlink.com 1.10,2013-03-09 08:36:00,
2013-03-09 02:51:00,51.3,44.0,30.07,ESE,117,0.0,1.0,77,0.00,,,0.00,weatherlink.com 1.10,2013-03-09 08:51:00,
2013-03-09 03:06:00,51.4,44.0,30.08,ESE,117,0.0,1.0,76,0.00,,,0.00,weatherlink.com 1.10,2013-03-09 09:06:00,
2013-03-09 03:21:00,51.4,45.0,30.08,ESE,117,0.0,0.0,78,0.00,,,0.00,weatherlink.com 1.10,2013-03-09 09:21:00,
2013-03-09 03:36:00,50.8,45.0,30.08,ESE,117,0.0,1.0,79,0.00,,,0.00,weatherlink.com 1.10,2013-03-09 09:36:00,
2013-03-09 03:51:00,50.6,44.0,30.08,SE,131,0.0,1.0,79,0.00,,,0.00,weatherlink.com 1.10,2013-03-09 09:51:00,
2013-03-09 04:06:00,51.0,45.0,30.09,SE,141,1.0,2.0,79,0.00,,,0.00,weatherlink.com 1.10,2013-03-09 10:06:00,
2013-03-09 04:21:00,51.4,45.0,30.10,West,277,0.0,2.0,78,0.00,,,0.00,weatherlink.com 1.10,2013-03-09 10:21:00,
2013-03-09 04:36:00,51.4,45.0,30.10,WNW,290,0.0,1.0,79,0.00,,,0.00,weatherlink.com 1.10,2013-03-09 10:36:00,
2013-03-09 04:51:00,51.5,45.0,30.10,NW,308,0.0,1.0,79,0.00,,,0.00,weatherlink.com 1.10,2013-03-09 10:51:00,
2013-03-09 05:06:00,50.9,45.0,30.10,NW,308,0.0,0.0,80,0.00,,,0.00,weatherlink.com 1.10,2013-03-09 11:06:00,
2013-03-09 05:21:00,50.5,45.0,30.10,NW,308,0.0,1.0,82,0.00,,,0.00,weatherlink.com 1.10,2013-03-09 11:21:00,
2013-03-09 05:36:00,50.6,45.0,30.09,SE,131,0.0,1.0,80,0.00,,,0.00,weatherlink.com 1.10,2013-03-09 11:36:00,
2013-03-09 05:51:00,51.0,44.0,30.09,SSE,157,1.0,3.0,77,0.00,,,0.00,weatherlink.com 1.10,2013-03-09 11:51:00,
2013-03-09 06:07:00,50.9,44.0,30.11,South,173,0.0,2.0,77,0.00,,,0.00,weatherlink.com 1.10,2013-03-09 12:07:00,
2013-03-09 06:22:00,50.1,44.0,30.10,South,173,0.0,1.0,78,0.00,,,0.00,weatherlink.com 1.10,2013-03-09 12:22:00,
2013-03-09 06:37:00,50.6,43.0,30.11,SSE,155,0.0,1.0,75,0.00,,,0.00,weatherlink.com 1.10,2013-03-09 12:37:00,
2013-03-09 06:52:00,50.8,44.0,30.12,SSE,155,0.0,1.0,76,0.00,,,0.00,weatherlink.com 1.10,2013-03-09 12:52:00,
2013-03-09 07:07:00,51.7,43.0,30.12,SSE,166,0.0,2.0,73,0.00,,,0.00,weatherlink.com 1.10,2013-03-09 13:07:00,
2013-03-09 07:22:00,52.6,43.0,30.12,SE,134,1.0,2.0,71,0.00,,,0.00,weatherlink.com 1.10,2013-03-09 13:22:00,
2013-03-09 07:37:00,53.8,45.0,30.13,SE,129,0.0,1.0,72,0.00,,,0.00,weatherlink.com 1.10,2013-03-09 13:37:00,
2013-03-09 07:52:00,54.5,45.0,30.14,SE,134,2.0,2.0,71,0.00,,,0.00,weatherlink.com 1.10,2013-03-09 13:52:00,
2013-03-09 08:07:00,55.5,47.0,30.14,SE,142,0.0,2.0,72,0.00,,,0.00,weatherlink.com 1.10,2013-03-09 14:07:00,
2013-03-09 08:22:00,56.5,47.0,30.14,SSE,156,2.0,5.0,71,0.00,,,0.00,weatherlink.com 1.10,2013-03-09 14:22:00,
2013-03-09 08:37:00,57.8,49.0,30.14,ESE,112,1.0,3.0,72,0.00,,,0.00,weatherlink.com 1.10,2013-03-09 14:37:00,
2013-03-09 08:52:00,59.2,49.0,30.14,SE,139,1.0,2.0,69,0.00,,,0.00,weatherlink.com 1.10,2013-03-09 14:52:00,
2013-03-09 09:07:00,60.2,47.0,30.14,SSE,162,2.0,5.0,63,0.00,,,0.00,weatherlink.com 1.10,2013-03-09 15:07:00,
2013-03-09 09:22:00,60.5,47.0,30.14,SSE,159,1.0,4.0,61,0.00,,,0.00,weatherlink.com 1.10,2013-03-09 15:22:00,
2013-03-09 09:37:00,60.9,47.0,30.14,SE,140,2.0,6.0,60,0.00,,,0.00,weatherlink.com 1.10,2013-03-09 15:37:00,
2013-03-09 09:52:00,61.4,47.0,30.14,SW,229,3.0,5.0,59,0.00,,,0.00,weatherlink.com 1.10,2013-03-09 15:52:00,
2013-03-09 10:07:00,62.6,48.0,30.13,SE,129,1.0,4.0,59,0.00,,,0.00,weatherlink.com 1.10,2013-03-09 16:07:00,
2013-03-09 10:22:00,62.9,48.0,30.13,SE,146,1.0,4.0,58,0.00,,,0.00,weatherlink.com 1.10,2013-03-09 16:22:00,
2013-03-09 10:37:00,63.2,48.0,30.13,SE,134,2.0,4.0,59,0.00,,,0.00,weatherlink.com 1.10,2013-03-09 16:37:00,
2013-03-09 10:52:00,63.6,50.0,30.12,SSE,148,1.0,5.0,62,0.00,,,0.00,weatherlink.com 1.10,2013-03-09 16:52:00,
2013-03-09 11:07:00,64.2,49.0,30.12,South,174,4.0,7.0,59,0.00,,,0.00,weatherlink.com 1.10,2013-03-09 17:07:00,
2013-03-09 11:22:00,64.5,50.0,30.12,SE,142,2.0,6.0,59,0.00,,,0.00,weatherlink.com 1.10,2013-03-09 17:22:00,
2013-03-09 11:37:00,65.3,50.0,30.11,South,170,5.0,8.0,59,0.00,,,0.00,weatherlink.com 1.10,2013-03-09 17:37:00,
2013-03-09 11:52:00,66.4,51.0,30.10,SSE,150,3.0,7.0,58,0.00,,,0.00,weatherlink.com 1.10,2013-03-09 17:52:00,
2013-03-09 12:07:00,67.7,53.0,30.10,South,183,3.0,6.0,60,0.00,,,0.00,weatherlink.com 1.10,2013-03-09 18:07:00,
2013-03-09 12:22:00,67.9,54.0,30.08,ESE,121,1.0,8.0,61,0.00,,,0.00,weatherlink.com 1.10,2013-03-09 18:22:00,
2013-03-09 12:37:00,68.5,54.0,30.07,South,187,2.0,8.0,60,0.00,,,0.00,weatherlink.com 1.10,2013-03-09 18:37:00,
2013-03-09 12:52:00,70.0,53.0,30.06,SSE,150,4.0,9.0,55,0.00,,,0.00,weatherlink.com 1.10,2013-03-09 18:52:00,
2013-03-09 13:07:00,69.3,53.0,30.05,SSW,201,4.0,10.0,56,0.00,,,0.00,weatherlink.com 1.10,2013-03-09 19:07:00,
2013-03-09 13:22:00,68.8,54.0,30.04,SE,128,3.0,9.0,59,0.00,,,0.00,weatherlink.com 1.10,2013-03-09 19:22:00,
2013-03-09 13:38:00,68.8,54.0,30.03,SSE,162,5.0,11.0,60,0.00,,,0.00,weatherlink.com 1.10,2013-03-09 19:38:00,
2013-03-09 13:53:00,69.4,55.0,30.02,South,174,6.0,8.0,60,0.00,,,0.00,weatherlink.com 1.10,2013-03-09 19:53:00,
2013-03-09 14:08:00,69.1,54.0,30.02,SE,145,4.0,11.0,60,0.00,,,0.00,weatherlink.com 1.10,2013-03-09 20:08:00,
2013-03-09 14:23:00,69.2,55.0,30.02,ESE,113,3.0,7.0,61,0.00,,,0.00,weatherlink.com 1.10,2013-03-09 20:23:00,
2013-03-09 14:38:00,68.6,55.0,30.02,SE,142,3.0,10.0,63,0.00,,,0.00,weatherlink.com 1.10,2013-03-09 20:38:00,
2013-03-09 14:53:00,69.2,56.0,30.02,SSE,148,5.0,7.0,63,0.00,,,0.00,weatherlink.com 1.10,2013-03-09 20:53:00,
2013-03-09 15:08:00,69.3,56.0,30.02,SE,134,5.0,13.0,63,0.00,,,0.00,weatherlink.com 1.10,2013-03-09 21:08:00,
2013-03-09 15:23:00,69.9,57.0,30.02,SSW,198,4.0,8.0,63,0.00,,,0.00,weatherlink.com 1.10,2013-03-09 21:23:00,
2013-03-09 15:38:00,68.9,57.0,30.01,East,93,0.0,10.0,65,0.00,,,0.00,weatherlink.com 1.10,2013-03-09 21:38:00,
2013-03-09 15:53:00,68.8,57.0,30.00,ESE,108,4.0,8.0,66,0.00,,,0.00,weatherlink.com 1.10,2013-03-09 21:53:00,
2013-03-09 16:08:00,68.4,57.0,30.00,SE,143,4.0,11.0,67,0.00,,,0.00,weatherlink.com 1.10,2013-03-09 22:08:00,
2013-03-09 16:23:00,67.7,57.0,30.00,SE,141,2.0,9.0,69,0.00,,,0.00,weatherlink.com 1.10,2013-03-09 22:23:00,
2013-03-09 16:38:00,67.2,57.0,29.98,SSE,148,4.0,9.0,70,0.00,,,0.00,weatherlink.com 1.10,2013-03-09 22:38:00,
2013-03-09 16:53:00,67.0,57.0,29.98,ESE,110,2.0,8.0,70,0.00,,,0.00,weatherlink.com 1.10,2013-03-09 22:53:00,
2013-03-09 17:08:00,66.6,57.0,29.98,SSE,149,5.0,7.0,71,0.00,,,0.00,weatherlink.com 1.10,2013-03-09 23:08:00,
2013-03-09 17:23:00,66.2,57.0,29.98,NE,49,3.0,8.0,72,0.00,,,0.00,weatherlink.com 1.10,2013-03-09 23:23:00,
2013-03-09 17:38:00,65.5,57.0,29.97,ESE,117,2.0,7.0,74,0.00,,,0.00,weatherlink.com 1.10,2013-03-09 23:38:00,
2013-03-09 17:53:00,64.9,57.0,29.97,SE,139,4.0,6.0,75,0.00,,,0.00,weatherlink.com 1.10,2013-03-09 23:53:00,
2013-03-09 18:08:00,64.1,56.0,29.96,ESE,118,3.0,8.0,76,0.00,,,0.00,weatherlink.com 1.10,2013-03-10 00:08:00,
2013-03-09 18:23:00,63.7,56.0,29.97,SE,124,2.0,7.0,77,0.00,,,0.00,weatherlink.com 1.10,2013-03-10 00:23:00,
2013-03-09 18:38:00,63.5,56.0,29.98,SE,136,3.0,8.0,77,0.00,,,0.00,weatherlink.com 1.10,2013-03-10 00:38:00,
2013-03-09 18:53:00,63.2,56.0,29.98,ESE,111,4.0,6.0,78,0.00,,,0.00,weatherlink.com 1.10,2013-03-10 00:53:00,
2013-03-09 19:08:00,63.0,56.0,29.97,SE,134,1.0,7.0,78,0.00,,,0.00,weatherlink.com 1.10,2013-03-10 01:08:00,
2013-03-09 19:23:00,62.8,56.0,29.99,ESE,115,2.0,7.0,78,0.00,,,0.00,weatherlink.com 1.10,2013-03-10 01:23:00,
2013-03-09 19:38:00,62.6,56.0,29.98,SSE,162,2.0,5.0,78,0.00,,,0.00,weatherlink.com 1.10,2013-03-10 01:38:00,
2013-03-09 19:53:00,62.3,55.0,29.98,ESE,115,1.0,8.0,78,0.00,,,0.00,weatherlink.com 1.10,2013-03-10 01:53:00,
2013-03-09 20:08:00,62.0,55.0,29.97,SSE,150,4.0,8.0,79,0.00,,,0.00,weatherlink.com 1.10,2013-03-10 02:08:00,
2013-03-09 20:23:00,61.9,55.0,29.97,SE,142,6.0,10.0,79,0.00,,,0.00,weatherlink.com 1.10,2013-03-10 02:23:00,
2013-03-09 20:38:00,61.4,55.0,29.96,SSW,200,6.0,8.0,80,0.00,,,0.00,weatherlink.com 1.10,2013-03-10 02:38:00,
2013-03-09 20:53:00,60.9,55.0,29.94,SE,134,5.0,9.0,81,0.00,,,0.00,weatherlink.com 1.10,2013-03-10 02:53:00,
2013-03-09 21:08:00,60.4,55.0,29.93,ESE,111,4.0,8.0,81,0.00,,,0.00,weatherlink.com 1.10,2013-03-10 03:08:00,
2013-03-09 21:23:00,60.2,55.0,29.93,SE,128,5.0,8.0,82,0.00,,,0.00,weatherlink.com 1.10,2013-03-10 03:23:00,
2013-03-09 21:38:00,60.1,55.0,29.94,East,79,2.0,6.0,82,0.00,,,0.00,weatherlink.com 1.10,2013-03-10 03:38:00,
2013-03-09 21:53:00,60.3,55.0,29.95,SSE,160,4.0,7.0,83,0.00,,,0.00,weatherlink.com 1.10,2013-03-10 03:53:00,
2013-03-09 22:08:00,60.4,55.0,29.94,SSE,155,2.0,9.0,83,0.00,,,0.00,weatherlink.com 1.10,2013-03-10 04:08:00,
2013-03-09 22:23:00,60.4,56.0,29.94,SSE,153,7.0,7.0,84,0.00,,,0.00,weatherlink.com 1.10,2013-03-10 04:23:00,
2013-03-09 22:38:00,60.6,56.0,29.95,SE,134,3.0,9.0,85,0.00,,,0.00,weatherlink.com 1.10,2013-03-10 04:38:00,
2013-03-09 22:53:00,60.7,57.0,29.94,SE,129,2.0,9.0,86,0.00,,,0.00,weatherlink.com 1.10,2013-03-10 04:53:00,
2013-03-09 23:08:00,60.8,57.0,29.93,SE,128,2.0,7.0,87,0.00,,,0.00,weatherlink.com 1.10,2013-03-10 05:08:00,
2013-03-09 23:23:00,61.0,58.0,29.93,ESE,117,4.0,8.0,88,0.00,,,0.00,weatherlink.com 1.10,2013-03-10 05:23:00,
2013-03-09 23:38:00,61.3,58.0,29.92,SSE,165,4.0,8.0,88,0.00,,,0.00,weatherlink.com 1.10,2013-03-10 05:38:00,
2013-03-09 23:53:00,61.6,58.0,29.92,ESE,111,1.0,9.0,88,0.00,,,0.00,weatherlink.com 1.10,2013-03-10 05:53:00,